Time;durP1;ratioP1;P1;durP2;ratioP2;P2;SDS_P1;SDS_P2;PMS_P1;PMS_P2;Temp;Humidity;BMP_temperature;BMP_pressure;BME280_temperature;BME280_humidity;BME280_pressure;Samples;Min_cycle;Max_cycle;Signal;HPM_P1;HPM_P2
2022/11/29 00:00:35;;;;;;;;;38.00;33.00;;;;;-149.00;100.00;66333.84;5040775;28;45276;-80
2022/11/29 00:03:01;;;;;;;;;34.33;32.67;;;;;-149.00;100.00;66333.84;5040944;28;45330;-81
2022/11/29 00:05:26;;;;;;;;;35.50;33.00;;;;;-149.00;100.00;66333.84;5039834;28;45281;-81
2022/11/29 00:07:52;;;;;;;;;35.00;32.67;;;;;-149.00;100.00;66333.84;5040654;28;45379;-80
2022/11/29 00:10:17;;;;;;;;;31.33;30.00;;;;;-149.00;100.00;66333.84;5040717;28;45329;-80
2022/11/29 00:12:46;;;;;;;;;36.00;34.00;;;;;-149.00;100.00;66333.84;5022676;28;45341;-81
2022/11/29 00:15:11;;;;;;;;;32.67;30.00;;;;;-149.00;100.00;66333.84;5036087;28;45506;-80
2022/11/29 00:17:37;;;;;;;;;31.33;30.33;;;;;-149.00;100.00;66333.84;5030880;28;45285;-81
2022/11/29 00:20:02;;;;;;;;;26.33;26.00;;;;;-149.00;100.00;66333.84;5039074;28;46872;-80
2022/11/29 00:22:28;;;;;;;;;31.33;29.67;;;;;-149.00;100.00;66333.84;5040649;28;45350;-80
2022/11/29 00:24:53;;;;;;;;;27.33;24.00;;;;;-149.00;100.00;66333.84;5040802;28;45287;-80
2022/11/29 00:27:18;;;;;;;;;26.00;25.33;;;;;-149.00;100.00;66333.84;5022502;28;47382;-80
2022/11/29 00:29:44;;;;;;;;;31.33;30.00;;;;;-149.00;100.00;66333.84;5040254;28;45478;-81
2022/11/29 00:32:09;;;;;;;;;34.00;31.33;;;;;-149.00;100.00;66333.84;5040538;28;45353;-80
2022/11/29 00:34:35;;;;;;;;;31.67;29.00;;;;;-149.00;100.00;66333.84;5040583;28;45511;-81
2022/11/29 00:37:01;;;;;;;;;34.33;31.33;;;;;-149.00;100.00;66333.84;5040285;28;45357;-80
2022/11/29 00:39:26;;;;;;;;;35.50;33.00;;;;;-149.00;100.00;66333.84;5040243;28;45186;-80
2022/11/29 00:41:51;;;;;;;;;35.00;32.33;;;;;-149.00;100.00;66333.84;5038913;28;50333;-80
2022/11/29 00:44:17;;;;;;;;;29.00;29.00;;;;;-149.00;100.00;66333.84;5040242;28;45297;-80
2022/11/29 00:46:42;;;;;;;;;31.00;29.67;;;;;-149.00;100.00;66333.84;5038909;28;45872;-80
2022/11/29 00:49:07;;;;;;;;;31.67;31.33;;;;;-149.00;100.00;66333.84;5040167;28;45325;-81
2022/11/29 00:51:33;;;;;;;;;31.67;29.33;;;;;-149.00;100.00;66333.84;5040305;28;45337;-80
2022/11/29 00:53:58;;;;;;;;;29.00;28.00;;;;;-149.00;100.00;66333.84;5040034;28;45306;-80
2022/11/29 00:56:23;;;;;;;;;29.33;29.00;;;;;-149.00;100.00;66333.84;5040113;28;45297;-81
2022/11/29 00:58:49;;;;;;;;;31.00;29.33;;;;;-149.00;100.00;66333.84;5039908;28;45457;-81
2022/11/29 01:01:15;;;;;;;;;30.67;28.33;;;;;-149.00;100.00;66333.84;5039883;28;45408;-80
2022/11/29 01:03:40;;;;;;;;;27.33;26.67;;;;;-149.00;100.00;66333.84;5040321;28;45344;-81
2022/11/29 01:06:12;;;;;;;;;30.00;27.67;;;;;-149.00;100.00;66333.84;5039821;28;45409;-81
2022/11/29 01:08:38;;;;;;;;;25.67;24.67;;;;;-149.00;100.00;66333.84;5039869;28;45340;-80
2022/11/29 01:11:05;;;;;;;;;28.67;26.33;;;;;-149.00;100.00;66333.84;5039572;28;45384;-81
2022/11/29 01:13:30;;;;;;;;;28.00;26.33;;;;;-149.00;100.00;66333.84;5021154;28;45476;-80
2022/11/29 01:15:57;;;;;;;;;29.33;28.00;;;;;-149.00;100.00;66333.84;5021624;28;47093;-80
2022/11/29 01:18:23;;;;;;;;;29.67;27.67;;;;;-149.00;100.00;66333.84;5039501;28;46323;-81
2022/11/29 01:21:06;;;;;;;;;29.33;29.33;;;;;-149.00;100.00;66333.84;5021811;28;45385;-80
2022/11/29 01:23:33;;;;;;;;;28.67;28.00;;;;;-149.00;100.00;66333.84;5039650;28;45427;-80
2022/11/29 01:26:02;;;;;;;;;29.00;25.33;;;;;-149.00;100.00;66333.84;5038333;28;47257;-80
2022/11/29 01:28:28;;;;;;;;;29.67;27.33;;;;;-149.00;100.00;66333.84;5039185;28;45430;-81
2022/11/29 01:30:53;;;;;;;;;33.33;30.67;;;;;-149.00;100.00;66333.84;5039719;28;45320;-81
2022/11/29 01:33:19;;;;;;;;;29.00;28.00;;;;;-149.00;100.00;66333.84;5039768;28;45323;-80
2022/11/29 01:35:52;;;;;;;;;34.50;32.75;;;;;-149.00;100.00;66333.84;5039543;28;45518;-80
2022/11/29 01:38:18;;;;;;;;;31.67;31.33;;;;;-149.00;100.00;66333.84;5039512;28;46223;-80
2022/11/29 01:40:55;;;;;;;;;30.00;29.00;;;;;-149.00;100.00;66333.84;5021370;28;45274;-81
2022/11/29 01:43:20;;;;;;;;;27.00;25.67;;;;;-149.00;100.00;66333.84;5021341;28;45314;-80
2022/11/29 01:45:45;;;;;;;;;31.00;29.67;;;;;-149.00;100.00;66333.84;5021304;28;45896;-81
2022/11/29 01:48:13;;;;;;;;;32.67;29.67;;;;;-149.00;100.00;66333.84;5021563;28;46412;-81
2022/11/29 01:50:40;;;;;;;;;26.33;24.67;;;;;-149.00;100.00;66333.84;5039287;28;45438;-80
2022/11/29 01:53:07;;;;;;;;;29.33;26.67;;;;;-149.00;100.00;66333.84;5039359;28;45222;-81
2022/11/29 01:55:38;;;;;;;;;27.33;26.00;;;;;-149.00;100.00;66333.84;5037778;28;46338;-80
2022/11/29 01:58:05;;;;;;;;;24.67;23.00;;;;;-149.00;100.00;66333.84;5039078;28;45569;-81
2022/11/29 02:00:31;;;;;;;;;31.67;27.33;;;;;-149.00;100.00;66333.84;5039087;28;45380;-80
2022/11/29 02:03:04;;;;;;;;;31.00;28.33;;;;;-149.00;100.00;66333.84;5037829;28;45508;-80
2022/11/29 02:05:31;;;;;;;;;33.67;32.00;;;;;-149.00;100.00;66333.84;5021138;28;46166;-80
2022/11/29 02:07:59;;;;;;;;;27.67;27.67;;;;;-149.00;100.00;66333.84;5038755;28;45737;-81
2022/11/29 02:10:48;;;;;;;;;36.75;33.75;;;;;-149.00;100.00;66333.84;5038303;28;45423;-80
2022/11/29 02:13:36;;;;;;;;;43.00;37.00;;;;;-149.00;100.00;66333.84;5038996;28;45308;-80
2022/11/29 02:16:08;;;;;;;;;53.75;43.75;;;;;-149.00;100.00;66333.84;4986624;28;46082;-80
2022/11/29 02:18:47;;;;;;;;;43.50;37.75;;;;;-149.00;100.00;66333.84;5038552;28;45427;-81
2022/11/29 02:21:42;;;;;;;;;42.25;37.25;;;;;-149.00;100.00;66333.84;5037441;28;45711;-80
2022/11/29 02:24:25;;;;;;;;;41.33;36.33;;;;;-149.00;100.00;66333.84;5038992;28;45393;-80
2022/11/29 02:27:26;;;;;;;;;42.00;36.75;;;;;-149.00;100.00;66333.84;5042206;28;45506;-80
2022/11/29 02:30:52;;;;;;;;;43.50;37.25;;;;;-149.00;100.00;66333.84;4954100;28;45420;-80
2022/11/29 02:33:48;;;;;;;;;46.75;38.00;;;;;-149.00;100.00;66333.84;4960945;28;45349;-81
2022/11/29 02:36:32;;;;;;;;;40.25;36.50;;;;;-149.00;100.00;66333.84;4961232;28;45441;-81
2022/11/29 02:39:12;;;;;;;;;42.50;36.00;;;;;-149.00;100.00;66333.84;5037000;28;45214;-80
2022/11/29 02:41:56;;;;;;;;;51.25;40.00;;;;;-149.00;100.00;66333.84;5024071;28;47539;-80
2022/11/29 02:44:44;;;;;;;;;40.25;36.25;;;;;-149.00;100.00;66333.84;5024015;28;45653;-80
2022/11/29 02:47:39;;;;;;;;;40.25;35.75;;;;;-149.00;100.00;66333.84;5042126;28;45419;-80
2022/11/29 02:50:54;;;;;;;;;38.25;35.75;;;;;-149.00;100.00;66333.84;5040730;28;46383;-80
2022/11/29 02:53:50;;;;;;;;;40.00;36.00;;;;;-149.00;100.00;66333.84;4998168;28;47274;-81
2022/11/29 02:57:07;;;;;;;;;35.33;33.00;;;;;-149.00;100.00;66333.84;5042049;28;45393;-81
2022/11/29 02:59:32;;;;;;;;;41.00;35.50;;;;;-149.00;100.00;66333.84;4960445;28;45497;-80
2022/11/29 03:02:40;;;;;;;;;45.25;39.25;;;;;-149.00;100.00;66333.84;4960685;28;45252;-81
2022/11/29 03:05:35;;;;;;;;;38.25;35.50;;;;;-149.00;100.00;66333.84;5020794;28;45684;-81
2022/11/29 03:08:10;;;;;;;;;45.00;38.25;;;;;-149.00;100.00;66333.84;5040286;28;45201;-81
2022/11/29 03:10:41;;;;;;;;;39.33;33.67;;;;;-149.00;100.00;66333.84;5023843;28;45335;-81
2022/11/29 03:13:18;;;;;;;;;39.00;35.00;;;;;-149.00;100.00;66333.84;5041273;28;45428;-81
2022/11/29 03:15:56;;;;;;;;;41.67;35.33;;;;;-149.00;100.00;66333.84;5036785;28;47459;-80
2022/11/29 03:18:43;;;;;;;;;42.25;36.50;;;;;-149.00;100.00;66333.84;5037788;28;45612;-81
2022/11/29 03:21:16;;;;;;;;;33.00;32.33;;;;;-149.00;100.00;66333.84;5023852;28;45460;-80
2022/11/29 03:23:55;;;;;;;;;36.75;34.50;;;;;-149.00;100.00;66333.84;5041184;28;45731;-81
2022/11/29 03:27:00;;;;;;;;;33.33;32.00;;;;;-149.00;100.00;66333.84;5023425;28;47266;-81
2022/11/29 03:29:39;;;;;;;;;36.25;34.25;;;;;-149.00;100.00;66333.84;5041346;28;45423;-81
2022/11/29 03:32:21;;;;;;;;;33.00;32.67;;;;;-149.00;100.00;66333.84;5041431;28;45196;-81
2022/11/29 03:34:49;;;;;;;;;30.67;29.67;;;;;-149.00;100.00;66333.84;5041299;28;45395;-81
2022/11/29 03:37:20;;;;;;;;;33.33;32.33;;;;;-149.00;100.00;66333.84;5040713;28;46272;-81
2022/11/29 03:40:09;;;;;;;;;38.25;35.75;;;;;-149.00;100.00;66333.84;5041392;28;45379;-81
2022/11/29 03:42:49;;;;;;;;;37.50;34.00;;;;;-149.00;100.00;66333.84;5041042;28;45284;-81
2022/11/29 03:45:27;;;;;;;;;33.00;32.67;;;;;-149.00;100.00;66333.84;5039814;28;46233;-80
2022/11/29 03:48:06;;;;;;;;;30.67;30.67;;;;;-149.00;100.00;66333.84;5041174;28;45437;-81
2022/11/29 03:50:37;;;;;;;;;40.67;35.00;;;;;-149.00;100.00;66333.84;5041031;28;45596;-81
2022/11/29 03:53:14;;;;;;;;;39.75;34.25;;;;;-149.00;100.00;66333.84;5022891;28;45255;-81
2022/11/29 03:55:53;;;;;;;;;37.25;34.75;;;;;-149.00;100.00;66333.84;5022883;28;47683;-81
2022/11/29 03:58:45;;;;;;;;;35.00;33.00;;;;;-149.00;100.00;66333.84;5040717;28;45437;-81
2022/11/29 04:01:41;;;;;;;;;40.25;33.25;;;;;-149.00;100.00;66333.84;4993632;28;45483;-81
2022/11/29 04:04:31;;;;;;;;;41.75;37.00;;;;;-149.00;100.00;66333.84;5022868;28;45226;-81
2022/11/29 04:06:59;;;;;;;;;38.00;35.00;;;;;-149.00;100.00;66333.84;5040917;28;45343;-81
2022/11/29 04:09:43;;;;;;;;;33.67;30.00;;;;;-149.00;100.00;66333.84;5040575;28;45487;-81
2022/11/29 04:12:33;;;;;;;;;38.75;36.00;;;;;-149.00;100.00;66333.84;5022619;28;45367;-81
2022/11/29 04:15:18;;;;;;;;;38.50;35.25;;;;;-149.00;100.00;66333.84;5022599;28;45479;-81
2022/11/29 04:18:02;;;;;;;;;42.00;37.50;;;;;-149.00;100.00;66333.84;5040521;28;45371;-80
2022/11/29 04:21:05;;;;;;;;;38.25;34.00;;;;;-149.00;100.00;66333.84;5040223;28;45949;-81
2022/11/29 04:24:08;;;;;;;;;38.00;35.00;;;;;-149.00;100.00;66333.84;5040020;28;45293;-81
2022/11/29 04:26:55;;;;;;;;;41.75;36.00;;;;;-149.00;100.00;66333.84;5040542;28;45265;-81
2022/11/29 04:29:49;;;;;;;;;38.25;35.00;;;;;-149.00;100.00;66333.84;5040522;28;45288;-81
2022/11/29 04:32:52;;;;;;;;;43.75;35.50;;;;;-149.00;100.00;66333.84;5029429;28;45282;-82
2022/11/29 04:35:37;;;;;;;;;46.00;35.00;;;;;-149.00;100.00;66333.84;5040256;28;45305;-81
2022/11/29 04:38:35;;;;;;;;;37.50;35.25;;;;;-149.00;100.00;66333.84;5022542;28;45401;-80
2022/11/29 04:41:19;;;;;;;;;36.00;33.00;;;;;-149.00;100.00;66333.84;5040366;28;45608;-81
2022/11/29 04:44:14;;;;;;;;;44.75;36.00;;;;;-149.00;100.00;66333.84;5039918;28;46123;-82
2022/11/29 04:47:05;;;;;;;;;40.00;35.00;;;;;-149.00;100.00;66333.84;5039799;28;45223;-81
2022/11/29 04:49:36;;;;;;;;;35.25;32.75;;;;;-149.00;100.00;66333.84;5022470;28;45408;-81
2022/11/29 04:52:01;;;;;;;;;40.25;36.25;;;;;-149.00;100.00;66333.84;5021943;28;46215;-81
2022/11/29 04:55:21;;;;;;;;;38.33;34.67;;;;;-149.00;100.00;66333.84;5021822;28;47231;-81
2022/11/29 04:57:56;;;;;;;;;37.50;33.75;;;;;-149.00;100.00;66333.84;4957505;28;45557;-81
2022/11/29 05:00:23;;;;;;;;;40.00;33.25;;;;;-149.00;100.00;66333.84;5038728;28;45304;-81
2022/11/29 05:02:56;;;;;;;;;35.00;33.00;;;;;-149.00;100.00;66333.84;5039858;28;45399;-81
2022/11/29 05:05:42;;;;;;;;;40.00;35.75;;;;;-149.00;100.00;66333.84;5039946;28;46159;-81
2022/11/29 05:08:34;;;;;;;;;48.25;42.25;;;;;-149.00;100.00;66333.84;5021797;28;45343;-81
2022/11/29 05:11:19;;;;;;;;;52.25;41.25;;;;;-149.00;100.00;66333.84;5039763;28;45323;-82
2022/11/29 05:13:57;;;;;;;;;42.25;38.25;;;;;-149.00;100.00;66333.84;5021394;28;46245;-81
2022/11/29 05:16:30;;;;;;;;;46.75;39.75;;;;;-149.00;100.00;66333.84;5039511;28;45586;-81
2022/11/29 05:19:18;;;;;;;;;41.75;37.50;;;;;-149.00;100.00;66333.84;5018323;28;45518;-81
2022/11/29 05:21:54;;;;;;;;;30.25;30.25;;;;;-149.00;100.00;66333.84;5034468;28;45318;-81
2022/11/29 05:25:04;;;;;;;;;35.00;32.75;;;;;-149.00;100.00;66333.84;5039540;28;45375;-81
2022/11/29 05:27:53;;;;;;;;;39.00;35.50;;;;;-149.00;100.00;66333.84;4978172;28;48240;-81
2022/11/29 05:30:24;;;;;;;;;34.75;34.00;;;;;-149.00;100.00;66333.84;5021448;28;45876;-82
2022/11/29 05:32:57;;;;;;;;;40.50;35.00;;;;;-149.00;100.00;66333.84;5038298;28;45269;-81
2022/11/29 05:35:49;;;;;;;;;42.50;37.00;;;;;-149.00;100.00;66333.84;5039212;28;45424;-81
2022/11/29 05:38:29;;;;;;;;;37.00;34.25;;;;;-149.00;100.00;66333.84;5037959;28;47564;-81
2022/11/29 05:41:29;;;;;;;;;32.50;30.75;;;;;-149.00;100.00;66333.84;5038260;28;45325;-82
2022/11/29 05:44:04;;;;;;;;;48.75;39.50;;;;;-149.00;100.00;66333.84;5036594;28;45561;-81
2022/11/29 05:46:47;;;;;;;;;46.25;38.75;;;;;-149.00;100.00;66333.84;5035452;28;46450;-81
2022/11/29 05:49:28;;;;;;;;;45.75;39.00;;;;;-149.00;100.00;66333.84;5038963;28;46697;-81
2022/11/29 05:52:19;;;;;;;;;46.00;38.00;;;;;-149.00;100.00;66333.84;5038582;28;45376;-81
2022/11/29 05:55:24;;;;;;;;;40.25;36.75;;;;;-149.00;100.00;66333.84;5026740;28;45230;-81
2022/11/29 05:58:07;;;;;;;;;42.25;36.25;;;;;-149.00;100.00;66333.84;5017346;28;45452;-81
2022/11/29 06:00:44;;;;;;;;;36.75;34.25;;;;;-149.00;100.00;66333.84;5038859;28;45404;-82
2022/11/29 06:03:28;;;;;;;;;43.00;37.00;;;;;-149.00;100.00;66333.84;5024595;28;45366;-81
2022/11/29 06:06:01;;;;;;;;;41.25;36.25;;;;;-149.00;100.00;66333.84;5020502;28;45677;-81
2022/11/29 06:08:41;;;;;;;;;45.00;39.00;;;;;-149.00;100.00;66333.84;5038558;28;45416;-81
2022/11/29 06:11:22;;;;;;;;;47.75;40.25;;;;;-149.00;100.00;66333.84;5020880;28;46347;-81
2022/11/29 06:13:59;;;;;;;;;51.25;43.00;;;;;-149.00;100.00;66333.84;5037310;28;45363;-81
2022/11/29 06:16:40;;;;;;;;;61.75;49.75;;;;;-149.00;100.00;66333.84;5034305;28;45387;-82
2022/11/29 06:19:33;;;;;;;;;63.00;50.75;;;;;-149.00;100.00;66333.84;5020785;28;47217;-81
2022/11/29 06:22:21;;;;;;;;;56.00;47.50;;;;;-149.00;100.00;66333.84;5020642;28;48504;-81
2022/11/29 06:25:22;;;;;;;;;52.75;43.50;;;;;-149.00;100.00;66333.84;5020664;28;45971;-80
2022/11/29 06:28:37;;;;;;;;;49.75;41.25;;;;;-149.00;100.00;66333.84;5006051;28;45517;-81
2022/11/29 06:31:27;;;;;;;;;55.75;46.75;;;;;-149.00;100.00;66333.84;4967545;28;46532;-81
2022/11/29 06:34:06;;;;;;;;;49.00;39.75;;;;;-149.00;100.00;66333.84;5038421;28;45593;-82
2022/11/29 06:36:53;;;;;;;;;41.75;37.75;;;;;-149.00;100.00;66333.84;5038755;28;45225;-81
2022/11/29 06:39:18;;;;;;;;;48.75;39.50;;;;;-149.00;100.00;66333.84;5037349;28;45463;-82
2022/11/29 06:41:45;;;;;;;;;45.25;38.00;;;;;-149.00;100.00;66333.84;5038482;28;45297;-81
2022/11/29 06:44:11;;;;;;;;;47.00;37.75;;;;;-149.00;100.00;66333.84;5020203;28;47253;-82
2022/11/29 06:46:47;;;;;;;;;47.50;38.25;;;;;-149.00;100.00;66333.84;5020708;28;45484;-81
2022/11/29 06:49:15;;;;;;;;;47.00;38.00;;;;;-149.00;100.00;66333.84;5018394;28;45427;-81
2022/11/29 06:51:59;;;;;;;;;48.50;41.00;;;;;-149.00;100.00;66333.84;5020179;28;46235;-81
2022/11/29 06:54:40;;;;;;;;;54.75;45.00;;;;;-149.00;100.00;66333.84;5038265;28;45302;-81
2022/11/29 06:57:28;;;;;;;;;48.00;39.75;;;;;-149.00;100.00;66333.84;5036543;28;45788;-82
2022/11/29 06:59:56;;;;;;;;;54.50;44.00;;;;;-149.00;100.00;66333.84;5038675;28;45337;-83
2022/11/29 07:02:44;;;;;;;;;52.25;42.75;;;;;-149.00;100.00;66333.84;5020177;28;46362;-83
2022/11/29 07:05:24;;;;;;;;;51.25;39.75;;;;;-149.00;100.00;66333.84;5020318;28;47907;-82
2022/11/29 07:07:53;;;;;;;;;48.50;40.00;;;;;-149.00;100.00;66333.84;5038369;28;45443;-82
2022/11/29 07:10:19;;;;;;;;;52.75;41.75;;;;;-149.00;100.00;66333.84;5037252;28;45390;-83
2022/11/29 07:12:46;;;;;;;;;46.75;38.00;;;;;-149.00;100.00;66333.84;5041497;28;45389;-84
2022/11/29 07:15:21;;;;;;;;;54.50;43.50;;;;;-149.00;100.00;66333.84;5041320;28;45344;-83
2022/11/29 07:18:03;;;;;;;;;42.00;35.75;;;;;-149.00;100.00;66333.84;5023580;28;45337;-83
2022/11/29 07:21:01;;;;;;;;;58.00;45.75;;;;;-149.00;100.00;66333.84;5041584;28;45398;-84
2022/11/29 07:23:26;;;;;;;;;58.75;45.50;;;;;-149.00;100.00;66333.84;5022283;28;46411;-85
2022/11/29 07:26:06;;;;;;;;;51.50;38.50;;;;;-149.00;100.00;66333.84;5023620;28;48508;-82
2022/11/29 07:28:59;;;;;;;;;54.75;44.00;;;;;-149.00;100.00;66333.84;5033716;28;45583;-83
2022/11/29 07:31:43;;;;;;;;;35.50;32.75;;;;;-149.00;100.00;66333.84;5041568;28;45513;-81
2022/11/29 07:34:23;;;;;;;;;51.50;40.00;;;;;-149.00;100.00;66333.84;5019945;28;45620;-81
2022/11/29 07:37:22;;;;;;;;;80.75;59.25;;;;;-149.00;100.00;66333.84;5034060;28;45406;-81
2022/11/29 07:40:01;;;;;;;;;57.25;40.50;;;;;-149.00;100.00;66333.84;5041238;28;45360;-81
2022/11/29 07:42:40;;;;;;;;;53.25;41.75;;;;;-149.00;100.00;66333.84;5037692;28;45365;-82
2022/11/29 07:45:24;;;;;;;;;47.50;38.75;;;;;-149.00;100.00;66333.84;5041176;28;45301;-82
2022/11/29 07:47:50;;;;;;;;;52.75;38.50;;;;;-149.00;100.00;66333.84;5040948;28;46707;-81
2022/11/29 07:50:16;;;;;;;;;44.25;37.50;;;;;-149.00;100.00;66333.84;5022693;28;45325;-82
2022/11/29 07:52:41;;;;;;;;;41.75;36.00;;;;;-149.00;100.00;66333.84;5039490;28;45354;-81
2022/11/29 07:55:15;;;;;;;;;40.50;35.25;;;;;-149.00;100.00;66333.84;5041087;28;45538;-82
2022/11/29 07:57:40;;;;;;;;;43.00;36.50;;;;;-149.00;100.00;66333.84;5039582;28;49340;-83
2022/11/29 08:00:07;;;;;;;;;35.00;33.00;;;;;-149.00;100.00;66333.84;5040443;28;45404;-77
2022/11/29 08:02:32;;;;;;;;;43.67;35.33;;;;;-149.00;100.00;66333.84;5023266;28;45345;-78
2022/11/29 08:04:58;;;;;;;;;33.00;28.33;;;;;-149.00;100.00;66333.84;5041361;28;45222;-79
2022/11/29 08:07:23;;;;;;;;;50.00;36.67;;;;;-149.00;100.00;66333.84;5042500;28;45923;-78
2022/11/29 08:09:49;;;;;;;;;35.67;33.00;;;;;-149.00;100.00;66333.84;5041257;28;45296;-78
2022/11/29 08:12:15;;;;;;;;;38.67;35.33;;;;;-149.00;100.00;66333.84;5048947;28;44606;-79
2022/11/29 08:14:40;;;;;;;;;53.25;42.50;;;;;-149.00;100.00;66333.84;5049298;28;45601;-78
2022/11/29 08:17:05;;;;;;;;;42.50;36.75;;;;;-149.00;100.00;66333.84;5046619;28;48158;-79
2022/11/29 08:19:31;;;;;;;;;43.00;35.75;;;;;-149.00;100.00;66333.84;5046050;28;45690;-79
2022/11/29 08:21:56;;;;;;;;;51.50;40.50;;;;;-149.00;100.00;66333.84;5047106;28;45394;-79
2022/11/29 08:24:21;;;;;;;;;56.75;44.25;;;;;-149.00;100.00;66333.84;5047289;28;45421;-79
2022/11/29 08:26:47;;;;;;;;;72.75;57.00;;;;;-149.00;100.00;66333.84;5045015;28;45335;-79
2022/11/29 08:29:12;;;;;;;;;53.50;39.50;;;;;-149.00;100.00;66333.84;5048709;28;45229;-78
2022/11/29 08:31:38;;;;;;;;;36.00;33.00;;;;;-149.00;100.00;66333.84;5044161;28;45474;-79
2022/11/29 08:34:07;;;;;;;;;31.00;27.33;;;;;-149.00;100.00;66333.84;5046959;28;45329;-79
2022/11/29 08:36:33;;;;;;;;;38.33;30.33;;;;;-149.00;100.00;66333.84;5046955;28;45371;-80
2022/11/29 08:39:01;;;;;;;;;34.33;30.00;;;;;-149.00;100.00;66333.84;5044786;28;45194;-79
2022/11/29 08:41:26;;;;;;;;;45.67;33.67;;;;;-149.00;100.00;66333.84;5028615;28;45355;-80
2022/11/29 08:43:51;;;;;;;;;36.33;28.67;;;;;-149.00;100.00;66333.84;5043177;28;46301;-81
2022/11/29 08:46:17;;;;;;;;;29.67;25.00;;;;;-149.00;100.00;66333.84;5047202;28;45331;-80
2022/11/29 08:48:42;;;;;;;;;41.67;33.00;;;;;-149.00;100.00;66333.84;5050364;28;45478;-80
2022/11/29 08:51:08;;;;;;;;;32.67;28.00;;;;;-149.00;100.00;66333.84;5048993;28;45380;-82
2022/11/29 08:53:43;;;;;;;;;32.33;25.67;;;;;-149.00;100.00;66333.84;5031105;28;47307;-80
2022/11/29 08:56:13;;;;;;;;;27.33;25.33;;;;;-149.00;100.00;66333.84;5048238;28;45529;-79
2022/11/29 08:58:39;;;;;;;;;34.00;31.00;;;;;-149.00;100.00;66333.84;5024423;28;46185;-80
2022/11/29 09:01:13;;;;;;;;;31.00;26.67;;;;;-149.00;100.00;66333.84;5026954;28;45275;-79
2022/11/29 09:06:22;;;;;;;;;44.33;29.00;;;;;-149.00;100.00;66333.84;5046613;28;45498;-80
2022/11/29 09:08:47;;;;;;;;;25.33;25.00;;;;;-149.00;100.00;66333.84;5047160;28;45306;-79
2022/11/29 09:11:16;;;;;;;;;28.33;25.67;;;;;-149.00;100.00;66333.84;5025064;28;45376;-79
2022/11/29 09:13:44;;;;;;;;;34.33;30.00;;;;;-149.00;100.00;66333.84;5025564;28;45966;-79
2022/11/29 09:16:13;;;;;;;;;27.00;23.67;;;;;-149.00;100.00;66333.84;5024405;28;47863;-79
2022/11/29 09:18:40;;;;;;;;;33.33;27.67;;;;;-149.00;100.00;66333.84;5044072;28;45404;-80
2022/11/29 09:21:11;;;;;;;;;27.67;25.00;;;;;-149.00;100.00;66333.84;5025621;28;45322;-79
2022/11/29 09:23:38;;;;;;;;;27.67;23.67;;;;;-149.00;100.00;66333.84;5042156;28;45324;-80
2022/11/29 09:26:04;;;;;;;;;31.67;27.67;;;;;-149.00;100.00;66333.84;5042232;28;46741;-80
2022/11/29 09:28:30;;;;;;;;;30.33;25.00;;;;;-149.00;100.00;66333.84;5042575;28;45459;-80
2022/11/29 09:31:06;;;;;;;;;26.00;23.33;;;;;-149.00;100.00;66333.84;5039181;28;45439;-80
2022/11/29 09:33:32;;;;;;;;;26.33;24.67;;;;;-149.00;100.00;66333.84;5036131;28;45765;-80
2022/11/29 09:35:58;;;;;;;;;25.00;21.67;;;;;-149.00;100.00;66333.84;5018386;28;48072;-80
2022/11/29 09:38:23;;;;;;;;;24.00;21.67;;;;;-149.00;100.00;66333.84;5040979;28;45417;-80
2022/11/29 09:40:55;;;;;;;;;26.33;22.33;;;;;-149.00;100.00;66333.84;5042724;28;45439;-80
2022/11/29 09:43:59;;;;;;;;;22.67;21.00;;;;;-149.00;100.00;66333.84;5024629;28;47586;-80
2022/11/29 09:47:01;;;;;;;;;30.00;24.67;;;;;-149.00;100.00;66333.84;5041277;28;45417;-80
2022/11/29 09:49:30;;;;;;;;;27.00;22.67;;;;;-149.00;100.00;66333.84;5029249;28;45329;-80
2022/11/29 09:52:12;;;;;;;;;27.00;25.00;;;;;-149.00;100.00;66333.84;5023494;28;45297;-80
2022/11/29 09:55:00;;;;;;;;;24.00;21.00;;;;;-149.00;100.00;66333.84;5041022;28;45353;-80
2022/11/29 09:57:28;;;;;;;;;23.00;22.00;;;;;-149.00;100.00;66333.84;5023452;28;46532;-79
2022/11/29 09:59:58;;;;;;;;;21.67;19.33;;;;;-149.00;100.00;66333.84;5041629;28;45390;-80
2022/11/29 10:02:35;;;;;;;;;24.67;19.33;;;;;-149.00;100.00;66333.84;5040714;28;45231;-81
2022/11/29 10:05:08;;;;;;;;;23.67;22.33;;;;;-149.00;100.00;66333.84;5039304;28;47814;-80
2022/11/29 10:07:43;;;;;;;;;27.67;26.33;;;;;-149.00;100.00;66333.84;5018178;28;47373;-80
2022/11/29 10:10:26;;;;;;;;;22.67;20.33;;;;;-149.00;100.00;66333.84;5030686;28;45310;-80
2022/11/29 10:12:57;;;;;;;;;21.00;20.33;;;;;-149.00;100.00;66333.84;5021707;28;45443;-81
2022/11/29 10:15:26;;;;;;;;;23.67;22.00;;;;;-149.00;100.00;66333.84;5034430;28;45532;-80
2022/11/29 10:17:57;;;;;;;;;35.67;24.33;;;;;-149.00;100.00;66333.84;5031718;28;46029;-81
2022/11/29 10:20:36;;;;;;;;;27.00;22.33;;;;;-149.00;100.00;66333.84;5040156;28;45443;-80
2022/11/29 10:23:19;;;;;;;;;23.33;23.33;;;;;-149.00;100.00;66333.84;5039421;28;45332;-80
2022/11/29 10:25:47;;;;;;;;;29.33;23.00;;;;;-149.00;100.00;66333.84;5039282;28;45331;-79
2022/11/29 10:28:22;;;;;;;;;28.00;24.00;;;;;-149.00;100.00;66333.84;5039191;28;45280;-80
2022/11/29 10:30:52;;;;;;;;;25.67;23.00;;;;;-149.00;100.00;66333.84;5038909;28;45288;-79
2022/11/29 10:33:22;;;;;;;;;23.67;22.67;;;;;-149.00;100.00;66333.84;5021125;28;45400;-80
2022/11/29 10:35:51;;;;;;;;;29.33;26.00;;;;;-149.00;100.00;66333.84;5039005;28;46558;-80
2022/11/29 10:38:16;;;;;;;;;21.00;21.00;;;;;-149.00;100.00;66333.84;5032001;28;45900;-82
2022/11/29 10:40:50;;;;;;;;;24.33;22.33;;;;;-149.00;100.00;66333.84;5023982;28;45708;-81
2022/11/29 10:43:15;;;;;;;;;25.33;25.33;;;;;-149.00;100.00;66333.84;5024859;28;45356;-81
2022/11/29 10:45:44;;;;;;;;;23.00;23.00;;;;;-149.00;100.00;66333.84;5023235;28;46055;-82
2022/11/29 10:48:13;;;;;;;;;31.33;23.67;;;;;-149.00;100.00;66333.84;5040205;28;45467;-83
2022/11/29 10:50:42;;;;;;;;;24.33;24.00;;;;;-149.00;100.00;66333.84;5043781;28;45331;-80
2022/11/29 10:53:15;;;;;;;;;28.33;26.33;;;;;-149.00;100.00;66333.84;5043381;28;45333;-80
2022/11/29 10:55:57;;;;;;;;;27.67;25.67;;;;;-149.00;100.00;66333.84;5043241;28;45483;-80
2022/11/29 10:58:25;;;;;;;;;26.00;26.00;;;;;-149.00;100.00;66333.84;5038638;28;48352;-79
2022/11/29 11:00:56;;;;;;;;;26.00;26.00;;;;;-149.00;100.00;66333.84;5040866;28;45371;-80
2022/11/29 11:03:31;;;;;;;;;24.67;24.67;;;;;-149.00;100.00;66333.84;5022433;28;45464;-79
2022/11/29 11:06:09;;;;;;;;;32.33;29.00;;;;;-149.00;100.00;66333.84;5038571;28;46005;-79
2022/11/29 11:08:36;;;;;;;;;29.33;27.33;;;;;-149.00;100.00;66333.84;5038350;28;45437;-79
2022/11/29 11:11:05;;;;;;;;;24.00;24.00;;;;;-149.00;100.00;66333.84;5041168;28;45346;-80
2022/11/29 11:13:31;;;;;;;;;30.67;25.33;;;;;-149.00;100.00;66333.84;5023376;28;45368;-80
2022/11/29 11:16:09;;;;;;;;;24.67;24.33;;;;;-149.00;100.00;66333.84;5021609;28;46617;-80
2022/11/29 11:18:36;;;;;;;;;24.67;22.33;;;;;-149.00;100.00;66333.84;5043097;28;46519;-79
2022/11/29 11:21:03;;;;;;;;;30.00;27.33;;;;;-149.00;100.00;66333.84;5041088;28;45357;-79
2022/11/29 11:23:34;;;;;;;;;27.67;25.33;;;;;-149.00;100.00;66333.84;5042796;28;45447;-79
2022/11/29 11:26:09;;;;;;;;;25.67;23.00;;;;;-149.00;100.00;66333.84;5038184;28;45992;-79
2022/11/29 11:28:58;;;;;;;;;29.00;27.00;;;;;-149.00;100.00;66333.84;5030344;28;47429;-81
2022/11/29 11:31:30;;;;;;;;;23.00;21.67;;;;;-149.00;100.00;66333.84;5053170;28;45380;-84
2022/11/29 11:34:16;;;;;;;;;27.33;23.67;;;;;-149.00;100.00;66333.84;5050402;28;45340;-80
2022/11/29 11:36:41;;;;;;;;;26.33;26.33;;;;;-149.00;100.00;66333.84;5047285;28;45635;-81